SUR4606 SABE-SARC
Flight info
| Callsign | SUR4606 |
|---|---|
| Flight time | 1h 15m |
| Altitude | 35000 |
| Route | LANDA4B LANDA UN785 GUA UL793 KILIP KILIP2Z |
| Aircraft | B737/M-SDE2E3FGHIRWXY/LB1 |
Departure
| Time | 2026-04-15 16:03 |
|---|---|
| Airport | Aeroparque Jorge Newbery (SABE) |
Arrival
| Time | 2026-04-15 17:19 |
|---|---|
| Airport | Corrientes Airport (SARC) |
| Time | Latitude | Longitude | Altitude | Speed | Heading |
|---|---|---|---|---|---|
| 2026-04-15 15:31 | -34.55900 | -58.41247 | 29 ft | 0 kts | 260° |
| 2026-04-15 15:49 | -34.55899 | -58.41240 | 29 ft | 2 kts | 254° |
| 2026-04-15 15:49 | -34.55895 | -58.41223 | 29 ft | 2 kts | 256° |
| 2026-04-15 15:49 | -34.55891 | -58.41205 | 29 ft | 2 kts | 255° |
| 2026-04-15 15:50 | -34.55887 | -58.41192 | 29 ft | 0 kts | 265° |
| 2026-04-15 15:50 | -34.55888 | -58.41185 | 29 ft | 1 kts | 314° |
| 2026-04-15 15:50 | -34.55892 | -58.41180 | 29 ft | 0 kts | 306° |
| 2026-04-15 15:51 | -34.55892 | -58.41181 | 29 ft | 0 kts | 306° |
| 2026-04-15 15:51 | -34.55883 | -58.41195 | 29 ft | 3 kts | 303° |
| 2026-04-15 15:52 | -34.55869 | -58.41222 | 28 ft | 4 kts | 302° |
| 2026-04-15 15:52 | -34.55852 | -58.41255 | 28 ft | 4 kts | 301° |
| 2026-04-15 15:52 | -34.55833 | -58.41292 | 28 ft | 5 kts | 302° |
| 2026-04-15 15:52 | -34.55813 | -58.41331 | 27 ft | 5 kts | 301° |
| 2026-04-15 15:53 | -34.55794 | -58.41370 | 28 ft | 4 kts | 301° |
| 2026-04-15 15:53 | -34.55777 | -58.41402 | 28 ft | 4 kts | 302° |
| 2026-04-15 15:53 | -34.55761 | -58.41434 | 28 ft | 4 kts | 302° |
| 2026-04-15 15:53 | -34.55744 | -58.41465 | 28 ft | 4 kts | 302° |
| 2026-04-15 15:54 | -34.55729 | -58.41497 | 28 ft | 4 kts | 300° |
| 2026-04-15 15:54 | -34.55725 | -58.41536 | 27 ft | 5 kts | 246° |
| 2026-04-15 15:54 | -34.55754 | -58.41569 | 27 ft | 6 kts | 219° |
| 2026-04-15 15:54 | -34.55780 | -58.41596 | 27 ft | 4 kts | 234° |
| 2026-04-15 15:55 | -34.55782 | -58.41627 | 27 ft | 4 kts | 282° |
| 2026-04-15 15:55 | -34.55772 | -58.41662 | 27 ft | 4 kts | 292° |
| 2026-04-15 15:55 | -34.55757 | -58.41698 | 26 ft | 5 kts | 297° |
| 2026-04-15 15:55 | -34.55740 | -58.41737 | 26 ft | 5 kts | 297° |
| 2026-04-15 15:56 | -34.55722 | -58.41778 | 26 ft | 5 kts | 300° |
| 2026-04-15 15:56 | -34.55698 | -58.41824 | 25 ft | 6 kts | 304° |
| 2026-04-15 15:56 | -34.55671 | -58.41871 | 25 ft | 6 kts | 306° |
| 2026-04-15 15:56 | -34.55644 | -58.41917 | 25 ft | 6 kts | 304° |
| 2026-04-15 15:57 | -34.55619 | -58.41959 | 25 ft | 5 kts | 304° |
| 2026-04-15 15:57 | -34.55597 | -58.41999 | 25 ft | 5 kts | 303° |
| 2026-04-15 15:57 | -34.55576 | -58.42038 | 25 ft | 5 kts | 303° |
| 2026-04-15 15:57 | -34.55556 | -58.42072 | 25 ft | 4 kts | 305° |
| 2026-04-15 15:58 | -34.55536 | -58.42104 | 25 ft | 4 kts | 307° |
| 2026-04-15 15:58 | -34.55510 | -58.42147 | 25 ft | 9 kts | 307° |
| 2026-04-15 15:58 | -34.55473 | -58.42205 | 25 ft | 7 kts | 307° |
| 2026-04-15 15:58 | -34.55445 | -58.42250 | 26 ft | 5 kts | 307° |
| 2026-04-15 15:59 | -34.55421 | -58.42288 | 26 ft | 5 kts | 307° |
| 2026-04-15 15:59 | -34.55396 | -58.42328 | 26 ft | 6 kts | 307° |
| 2026-04-15 15:59 | -34.55379 | -58.42355 | 26 ft | 0 kts | 302° |
| 2026-04-15 16:00 | -34.55377 | -58.42359 | 26 ft | 1 kts | 301° |
| 2026-04-15 16:00 | -34.55365 | -58.42391 | 26 ft | 0 kts | 286° |
| 2026-04-15 16:00 | -34.55365 | -58.42392 | 26 ft | 0 kts | 285° |
| 2026-04-15 16:02 | -34.55362 | -58.42409 | 27 ft | 5 kts | 279° |
| 2026-04-15 16:02 | -34.55358 | -58.42445 | 27 ft | 7 kts | 275° |
| 2026-04-15 16:02 | -34.55392 | -58.42495 | 28 ft | 7 kts | 179° |
| 2026-04-15 16:03 | -34.55430 | -58.42455 | 28 ft | 7 kts | 125° |
| 2026-04-15 16:03 | -34.55508 | -58.42317 | 28 ft | 59 kts | 124° |
| 2026-04-15 16:03 | -34.55944 | -58.41538 | 38 ft | 157 kts | 124° |
| 2026-04-15 16:03 | -34.56531 | -58.40480 | 644 ft | 147 kts | 122° |
| 2026-04-15 16:04 | -34.57097 | -58.39444 | 1561 ft | 152 kts | 120° |
| 2026-04-15 16:04 | -34.57456 | -58.38280 | 2381 ft | 156 kts | 93° |
| 2026-04-15 16:04 | -34.57108 | -58.36985 | 2988 ft | 182 kts | 54° |
| 2026-04-15 16:04 | -34.56061 | -58.36084 | 3849 ft | 198 kts | 28° |
| 2026-04-15 16:05 | -34.54759 | -58.35474 | 4710 ft | 208 kts | 28° |
| 2026-04-15 16:05 | -34.53478 | -58.34575 | 5459 ft | 222 kts | 38° |
| 2026-04-15 16:05 | -34.52196 | -58.33470 | 6340 ft | 234 kts | 37° |
| 2026-04-15 16:05 | -34.50826 | -58.32359 | 7225 ft | 246 kts | 35° |
| 2026-04-15 16:06 | -34.49343 | -58.31219 | 8141 ft | 256 kts | 35° |
| 2026-04-15 16:06 | -34.47779 | -58.30202 | 9140 ft | 264 kts | 25° |
| 2026-04-15 16:06 | -34.45966 | -58.29815 | 10182 ft | 274 kts | 2° |
| 2026-04-15 16:06 | -34.44095 | -58.30363 | 10976 ft | 293 kts | 340° |
| 2026-04-15 16:07 | -34.42311 | -58.31694 | 11753 ft | 309 kts | 329° |
| 2026-04-15 16:07 | -34.40557 | -58.33256 | 12700 ft | 313 kts | 329° |
| 2026-04-15 16:07 | -34.37094 | -58.36175 | 14779 ft | 308 kts | 330° |
| 2026-04-15 16:08 | -34.35316 | -58.37620 | 15539 ft | 315 kts | 329° |
| 2026-04-15 16:08 | -34.33475 | -58.39118 | 16352 ft | 319 kts | 330° |
| 2026-04-15 16:08 | -34.31643 | -58.40611 | 17181 ft | 322 kts | 329° |
| 2026-04-15 16:08 | -34.29786 | -58.42130 | 17990 ft | 325 kts | 329° |
| 2026-04-15 16:09 | -34.27904 | -58.43673 | 18730 ft | 329 kts | 329° |
| 2026-04-15 16:09 | -34.26008 | -58.45220 | 19398 ft | 334 kts | 329° |
| 2026-04-15 16:09 | -34.24078 | -58.46790 | 20143 ft | 337 kts | 329° |
| 2026-04-15 16:09 | -34.22147 | -58.48373 | 20824 ft | 341 kts | 328° |
| 2026-04-15 16:10 | -34.20193 | -58.49982 | 21461 ft | 344 kts | 328° |
| 2026-04-15 16:10 | -34.18207 | -58.51620 | 22120 ft | 347 kts | 328° |
| 2026-04-15 16:10 | -34.16199 | -58.53278 | 22673 ft | 352 kts | 328° |
| 2026-04-15 16:10 | -34.14187 | -58.54941 | 23213 ft | 356 kts | 328° |
| 2026-04-15 16:11 | -34.12139 | -58.56626 | 23822 ft | 358 kts | 329° |
| 2026-04-15 16:11 | -34.09976 | -58.58158 | 24445 ft | 358 kts | 335° |
| 2026-04-15 16:11 | -34.07673 | -58.59166 | 25043 ft | 357 kts | 347° |
| 2026-04-15 16:11 | -34.05206 | -58.59573 | 25643 ft | 358 kts | 358° |
| 2026-04-15 16:12 | -34.02703 | -58.59475 | 26216 ft | 360 kts | 5° |
| 2026-04-15 16:12 | -34.00215 | -58.58995 | 26658 ft | 366 kts | 11° |
| 2026-04-15 16:12 | -33.97770 | -58.58191 | 27134 ft | 370 kts | 13° |
| 2026-04-15 16:12 | -33.95233 | -58.57624 | 27723 ft | 369 kts | 5° |
| 2026-04-15 16:13 | -33.92677 | -58.57480 | 28282 ft | 369 kts | 360° |
| 2026-04-15 16:13 | -33.90105 | -58.57545 | 28761 ft | 372 kts | 358° |
| 2026-04-15 16:13 | -33.87505 | -58.57657 | 29185 ft | 376 kts | 357° |
| 2026-04-15 16:13 | -33.84878 | -58.57774 | 29561 ft | 381 kts | 357° |
| 2026-04-15 16:14 | -33.82239 | -58.57902 | 29943 ft | 386 kts | 357° |
| 2026-04-15 16:14 | -33.79524 | -58.58034 | 30298 ft | 391 kts | 357° |
| 2026-04-15 16:14 | -33.76796 | -58.58161 | 30722 ft | 394 kts | 357° |
| 2026-04-15 16:14 | -33.74049 | -58.58281 | 31201 ft | 395 kts | 358° |
| 2026-04-15 16:15 | -33.71310 | -58.58396 | 31637 ft | 397 kts | 358° |
| 2026-04-15 16:15 | -33.68527 | -58.58508 | 31986 ft | 402 kts | 358° |
| 2026-04-15 16:15 | -33.65705 | -58.58623 | 32327 ft | 406 kts | 358° |
| 2026-04-15 16:15 | -33.62889 | -58.58737 | 32827 ft | 406 kts | 358° |
| 2026-04-15 16:16 | -33.60042 | -58.58859 | 33149 ft | 411 kts | 358° |
| 2026-04-15 16:16 | -33.57193 | -58.58985 | 33558 ft | 413 kts | 357° |
| 2026-04-15 16:16 | -33.54302 | -58.59110 | 33984 ft | 415 kts | 357° |
| 2026-04-15 16:16 | -33.51400 | -58.59256 | 34446 ft | 417 kts | 357° |
| 2026-04-15 16:17 | -33.48501 | -58.59387 | 34843 ft | 418 kts | 357° |
| 2026-04-15 16:17 | -33.42679 | -58.59634 | 34873 ft | 413 kts | 357° |
| 2026-04-15 16:18 | -33.36919 | -58.59873 | 34874 ft | 415 kts | 358° |
| 2026-04-15 16:18 | -33.31135 | -58.60123 | 34873 ft | 416 kts | 357° |
| 2026-04-15 16:19 | -33.25318 | -58.60371 | 34869 ft | 415 kts | 357° |
| 2026-04-15 16:19 | -33.19513 | -58.60623 | 34856 ft | 417 kts | 357° |
| 2026-04-15 16:20 | -33.13721 | -58.60877 | 34864 ft | 416 kts | 357° |
| 2026-04-15 16:20 | -33.07887 | -58.61154 | 34867 ft | 418 kts | 358° |
| 2026-04-15 16:21 | -33.02091 | -58.61404 | 34864 ft | 418 kts | 358° |
| 2026-04-15 16:21 | -32.96248 | -58.61739 | 34863 ft | 418 kts | 356° |
| 2026-04-15 16:22 | -32.90456 | -58.62228 | 34852 ft | 416 kts | 355° |
| 2026-04-15 16:22 | -32.84675 | -58.62747 | 34849 ft | 418 kts | 356° |
| 2026-04-15 16:23 | -32.78864 | -58.63265 | 34837 ft | 417 kts | 355° |
| 2026-04-15 16:23 | -32.73064 | -58.63767 | 34834 ft | 418 kts | 356° |
| 2026-04-15 16:24 | -32.67217 | -58.64239 | 34823 ft | 419 kts | 355° |
| 2026-04-15 16:24 | -32.61426 | -58.64719 | 34814 ft | 417 kts | 356° |
| 2026-04-15 16:25 | -32.55626 | -58.65206 | 34803 ft | 419 kts | 356° |
| 2026-04-15 16:25 | -32.49825 | -58.65705 | 34806 ft | 416 kts | 356° |
| 2026-04-15 16:26 | -32.44052 | -58.66209 | 34803 ft | 417 kts | 356° |
| 2026-04-15 16:26 | -32.38209 | -58.66704 | 34798 ft | 417 kts | 356° |
| 2026-04-15 16:27 | -32.32425 | -58.67169 | 34794 ft | 417 kts | 356° |
| 2026-04-15 16:27 | -32.26600 | -58.67650 | 34787 ft | 416 kts | 356° |
| 2026-04-15 16:28 | -32.20808 | -58.68139 | 34785 ft | 419 kts | 357° |
| 2026-04-15 16:28 | -32.15027 | -58.68610 | 34777 ft | 417 kts | 356° |
| 2026-04-15 16:29 | -32.09235 | -58.69084 | 34781 ft | 416 kts | 356° |
| 2026-04-15 16:29 | -32.03425 | -58.69562 | 34775 ft | 415 kts | 357° |
| 2026-04-15 16:30 | -31.97635 | -58.70038 | 34769 ft | 417 kts | 356° |
| 2026-04-15 16:30 | -31.91827 | -58.70513 | 34756 ft | 416 kts | 357° |
| 2026-04-15 16:31 | -31.86078 | -58.70987 | 34764 ft | 416 kts | 356° |
| 2026-04-15 16:31 | -31.80287 | -58.71450 | 34758 ft | 414 kts | 356° |
| 2026-04-15 16:32 | -31.74512 | -58.71924 | 34763 ft | 416 kts | 356° |
| 2026-04-15 16:32 | -31.68759 | -58.72399 | 34764 ft | 414 kts | 356° |
| 2026-04-15 16:33 | -31.63020 | -58.72873 | 34758 ft | 414 kts | 356° |
| 2026-04-15 16:33 | -31.57290 | -58.73342 | 34754 ft | 413 kts | 356° |
| 2026-04-15 16:34 | -31.51560 | -58.73811 | 34755 ft | 414 kts | 356° |
| 2026-04-15 16:34 | -31.45796 | -58.74281 | 34752 ft | 412 kts | 356° |
| 2026-04-15 16:35 | -31.40094 | -58.74744 | 34749 ft | 412 kts | 356° |
| 2026-04-15 16:35 | -31.34385 | -58.75204 | 34751 ft | 412 kts | 356° |
| 2026-04-15 16:36 | -31.28649 | -58.75668 | 34746 ft | 412 kts | 356° |
| 2026-04-15 16:36 | -31.22922 | -58.76132 | 34741 ft | 410 kts | 356° |
| 2026-04-15 16:37 | -31.17232 | -58.76591 | 34729 ft | 410 kts | 356° |
| 2026-04-15 16:37 | -31.11527 | -58.77052 | 34722 ft | 411 kts | 356° |
| 2026-04-15 16:38 | -31.05813 | -58.77514 | 34713 ft | 410 kts | 356° |
| 2026-04-15 16:38 | -31.00119 | -58.77974 | 34713 ft | 411 kts | 356° |
| 2026-04-15 16:39 | -30.94430 | -58.78435 | 34724 ft | 409 kts | 356° |
| 2026-04-15 16:39 | -30.88702 | -58.78897 | 34717 ft | 411 kts | 356° |
| 2026-04-15 16:40 | -30.83011 | -58.79354 | 34710 ft | 409 kts | 356° |
| 2026-04-15 16:40 | -30.77315 | -58.79811 | 34712 ft | 412 kts | 356° |
| 2026-04-15 16:41 | -30.71606 | -58.80266 | 34711 ft | 411 kts | 355° |
| 2026-04-15 16:41 | -30.65901 | -58.80723 | 34712 ft | 410 kts | 356° |
| 2026-04-15 16:42 | -30.60226 | -58.81177 | 34723 ft | 409 kts | 355° |
| 2026-04-15 16:42 | -30.54549 | -58.81631 | 34724 ft | 411 kts | 355° |
| 2026-04-15 16:43 | -30.48845 | -58.82087 | 34723 ft | 410 kts | 355° |
| 2026-04-15 16:43 | -30.43160 | -58.82541 | 34710 ft | 411 kts | 355° |
| 2026-04-15 16:44 | -30.37444 | -58.82995 | 34718 ft | 411 kts | 354° |
| 2026-04-15 16:44 | -30.31711 | -58.83450 | 34699 ft | 415 kts | 355° |
| 2026-04-15 16:45 | -30.25964 | -58.83905 | 34715 ft | 412 kts | 354° |
| 2026-04-15 16:45 | -30.20209 | -58.84362 | 34700 ft | 415 kts | 354° |
| 2026-04-15 16:46 | -30.14475 | -58.84819 | 34709 ft | 413 kts | 354° |
| 2026-04-15 16:46 | -30.08703 | -58.85277 | 34705 ft | 414 kts | 354° |
| 2026-04-15 16:47 | -30.02981 | -58.85730 | 34715 ft | 413 kts | 354° |
| 2026-04-15 16:47 | -29.97200 | -58.86189 | 34714 ft | 415 kts | 353° |
| 2026-04-15 16:48 | -29.91448 | -58.86646 | 34721 ft | 413 kts | 354° |
| 2026-04-15 16:48 | -29.85667 | -58.87098 | 34712 ft | 416 kts | 354° |
| 2026-04-15 16:49 | -29.79929 | -58.87547 | 34725 ft | 414 kts | 354° |
| 2026-04-15 16:49 | -29.74147 | -58.88001 | 34722 ft | 416 kts | 354° |
| 2026-04-15 16:50 | -29.68384 | -58.88453 | 34736 ft | 414 kts | 353° |
| 2026-04-15 16:50 | -29.62634 | -58.88907 | 34728 ft | 413 kts | 353° |
| 2026-04-15 16:51 | -29.56868 | -58.89360 | 34729 ft | 415 kts | 353° |
| 2026-04-15 16:51 | -29.51132 | -58.89814 | 34731 ft | 415 kts | 354° |
| 2026-04-15 16:52 | -29.45353 | -58.90270 | 34733 ft | 415 kts | 354° |
| 2026-04-15 16:52 | -29.39585 | -58.90726 | 34742 ft | 414 kts | 353° |
| 2026-04-15 16:53 | -29.33874 | -58.91172 | 34595 ft | 411 kts | 353° |
| 2026-04-15 16:53 | -29.31045 | -58.91391 | 34214 ft | 404 kts | 353° |
| 2026-04-15 16:53 | -29.28255 | -58.91608 | 33683 ft | 399 kts | 353° |
| 2026-04-15 16:53 | -29.25489 | -58.91825 | 33060 ft | 397 kts | 353° |
| 2026-04-15 16:54 | -29.22752 | -58.92039 | 32450 ft | 396 kts | 353° |
| 2026-04-15 16:54 | -29.19971 | -58.92258 | 31797 ft | 397 kts | 353° |
| 2026-04-15 16:54 | -29.17224 | -58.92474 | 31118 ft | 398 kts | 353° |
| 2026-04-15 16:54 | -29.14462 | -58.92693 | 30567 ft | 401 kts | 353° |
| 2026-04-15 16:55 | -29.11638 | -58.92919 | 30047 ft | 417 kts | 353° |
| 2026-04-15 16:55 | -29.08704 | -58.93153 | 29480 ft | 419 kts | 353° |
| 2026-04-15 16:55 | -29.05832 | -58.93376 | 28920 ft | 414 kts | 353° |
| 2026-04-15 16:55 | -29.02962 | -58.93596 | 28378 ft | 408 kts | 352° |
| 2026-04-15 16:56 | -29.00149 | -58.93813 | 27833 ft | 404 kts | 352° |
| 2026-04-15 16:56 | -28.97350 | -58.94029 | 27287 ft | 399 kts | 352° |
| 2026-04-15 16:56 | -28.94591 | -58.94241 | 26748 ft | 395 kts | 352° |
| 2026-04-15 16:56 | -28.91888 | -58.94450 | 26213 ft | 391 kts | 352° |
| 2026-04-15 16:57 | -28.89173 | -58.94661 | 25669 ft | 388 kts | 352° |
| 2026-04-15 16:57 | -28.86500 | -58.94870 | 25125 ft | 385 kts | 352° |
| 2026-04-15 16:57 | -28.83829 | -58.95079 | 24574 ft | 382 kts | 351° |
| 2026-04-15 16:57 | -28.81213 | -58.95282 | 24044 ft | 379 kts | 351° |
| 2026-04-15 16:58 | -28.78563 | -58.95488 | 23509 ft | 376 kts | 351° |
| 2026-04-15 16:58 | -28.75976 | -58.95689 | 22985 ft | 373 kts | 351° |
| 2026-04-15 16:58 | -28.73407 | -58.95887 | 22466 ft | 371 kts | 351° |
| 2026-04-15 16:58 | -28.70819 | -58.96088 | 21946 ft | 369 kts | 351° |
| 2026-04-15 16:59 | -28.68291 | -58.96283 | 21422 ft | 367 kts | 351° |
| 2026-04-15 16:59 | -28.65758 | -58.96479 | 20892 ft | 365 kts | 351° |
| 2026-04-15 16:59 | -28.63238 | -58.96674 | 20366 ft | 363 kts | 351° |
| 2026-04-15 16:59 | -28.60698 | -58.96870 | 19834 ft | 360 kts | 351° |
| 2026-04-15 17:00 | -28.58219 | -58.97062 | 19320 ft | 358 kts | 351° |
| 2026-04-15 17:00 | -28.55748 | -58.97254 | 18794 ft | 355 kts | 351° |
| 2026-04-15 17:00 | -28.53279 | -58.97447 | 18277 ft | 352 kts | 351° |
| 2026-04-15 17:00 | -28.50866 | -58.97637 | 17768 ft | 349 kts | 351° |
| 2026-04-15 17:01 | -28.48434 | -58.97827 | 17263 ft | 346 kts | 351° |
| 2026-04-15 17:01 | -28.46054 | -58.98013 | 16760 ft | 344 kts | 351° |
| 2026-04-15 17:01 | -28.43663 | -58.98199 | 16245 ft | 341 kts | 351° |
| 2026-04-15 17:01 | -28.41292 | -58.98386 | 15736 ft | 340 kts | 350° |
| 2026-04-15 17:02 | -28.38917 | -58.98548 | 15232 ft | 337 kts | 353° |
| 2026-04-15 17:02 | -28.36585 | -58.98562 | 14740 ft | 337 kts | 358° |
| 2026-04-15 17:02 | -28.34248 | -58.98253 | 14215 ft | 336 kts | 5° |
| 2026-04-15 17:02 | -28.31988 | -58.97686 | 13714 ft | 328 kts | 9° |
| 2026-04-15 17:03 | -28.29829 | -58.97033 | 13232 ft | 319 kts | 10° |
| 2026-04-15 17:03 | -28.27722 | -58.96377 | 12840 ft | 307 kts | 10° |
| 2026-04-15 17:03 | -28.25699 | -58.95759 | 12466 ft | 296 kts | 9° |
| 2026-04-15 17:03 | -28.23712 | -58.95173 | 11887 ft | 294 kts | 9° |
| 2026-04-15 17:04 | -28.21734 | -58.94605 | 11313 ft | 292 kts | 9° |
| 2026-04-15 17:04 | -28.19767 | -58.94044 | 10771 ft | 289 kts | 9° |
| 2026-04-15 17:04 | -28.17843 | -58.93497 | 10286 ft | 288 kts | 9° |
| 2026-04-15 17:04 | -28.15908 | -58.92945 | 9823 ft | 286 kts | 9° |
| 2026-04-15 17:05 | -28.13964 | -58.92391 | 9336 ft | 285 kts | 9° |
| 2026-04-15 17:05 | -28.12058 | -58.91847 | 8901 ft | 282 kts | 9° |
| 2026-04-15 17:05 | -28.10165 | -58.91308 | 8462 ft | 279 kts | 9° |
| 2026-04-15 17:05 | -28.08291 | -58.90774 | 7981 ft | 278 kts | 9° |
| 2026-04-15 17:06 | -28.06408 | -58.90239 | 7535 ft | 277 kts | 9° |
| 2026-04-15 17:06 | -28.04549 | -58.89709 | 7204 ft | 272 kts | 9° |
| 2026-04-15 17:06 | -28.02718 | -58.89188 | 6825 ft | 271 kts | 9° |
| 2026-04-15 17:06 | -28.00898 | -58.88672 | 6449 ft | 269 kts | 9° |
| 2026-04-15 17:07 | -27.99093 | -58.88160 | 6038 ft | 268 kts | 9° |
| 2026-04-15 17:07 | -27.97272 | -58.87643 | 5652 ft | 266 kts | 9° |
| 2026-04-15 17:07 | -27.95478 | -58.87132 | 5303 ft | 264 kts | 9° |
| 2026-04-15 17:07 | -27.93708 | -58.86630 | 4910 ft | 263 kts | 9° |
| 2026-04-15 17:08 | -27.91945 | -58.86132 | 4535 ft | 261 kts | 9° |
| 2026-04-15 17:08 | -27.90200 | -58.85640 | 4370 ft | 251 kts | 9° |
| 2026-04-15 17:08 | -27.88545 | -58.85169 | 4210 ft | 237 kts | 9° |
| 2026-04-15 17:08 | -27.86990 | -58.84728 | 4143 ft | 224 kts | 9° |
| 2026-04-15 17:09 | -27.85510 | -58.84308 | 4103 ft | 211 kts | 9° |
| 2026-04-15 17:09 | -27.84106 | -58.83912 | 4023 ft | 202 kts | 8° |
| 2026-04-15 17:09 | -27.82783 | -58.83538 | 4011 ft | 189 kts | 8° |
| 2026-04-15 17:09 | -27.81510 | -58.83184 | 3862 ft | 185 kts | 7° |
| 2026-04-15 17:10 | -27.80277 | -58.82840 | 3617 ft | 185 kts | 8° |
| 2026-04-15 17:10 | -27.79009 | -58.82486 | 3326 ft | 186 kts | 8° |
| 2026-04-15 17:10 | -27.77759 | -58.82132 | 3073 ft | 185 kts | 8° |
| 2026-04-15 17:10 | -27.76512 | -58.81773 | 2824 ft | 184 kts | 9° |
| 2026-04-15 17:11 | -27.75270 | -58.81417 | 2539 ft | 186 kts | 9° |
| 2026-04-15 17:11 | -27.74055 | -58.81029 | 2534 ft | 173 kts | 11° |
| 2026-04-15 17:11 | -27.72871 | -58.80671 | 2128 ft | 182 kts | 8° |
| 2026-04-15 17:12 | -27.70454 | -58.80139 | 1890 ft | 158 kts | 0° |
| 2026-04-15 17:12 | -27.69415 | -58.80059 | 1962 ft | 142 kts | 359° |
| 2026-04-15 17:12 | -27.68470 | -58.79970 | 2019 ft | 134 kts | 0° |
| 2026-04-15 17:12 | -27.67537 | -58.79827 | 2014 ft | 135 kts | 3° |
| 2026-04-15 17:13 | -27.66611 | -58.79667 | 2008 ft | 134 kts | 2° |
| 2026-04-15 17:13 | -27.65666 | -58.79512 | 1995 ft | 136 kts | 3° |
| 2026-04-15 17:13 | -27.64741 | -58.79359 | 2014 ft | 134 kts | 2° |
| 2026-04-15 17:13 | -27.63818 | -58.79225 | 2005 ft | 134 kts | 2° |
| 2026-04-15 17:14 | -27.62877 | -58.79073 | 1983 ft | 135 kts | 2° |
| 2026-04-15 17:14 | -27.61945 | -58.78925 | 1995 ft | 134 kts | 3° |
| 2026-04-15 17:14 | -27.61015 | -58.78775 | 1995 ft | 134 kts | 2° |
| 2026-04-15 17:14 | -27.60084 | -58.78621 | 1960 ft | 135 kts | 2° |
| 2026-04-15 17:15 | -27.59159 | -58.78451 | 1914 ft | 140 kts | 2° |
| 2026-04-15 17:15 | -27.58159 | -58.78374 | 1528 ft | 146 kts | 355° |
| 2026-04-15 17:15 | -27.57153 | -58.78494 | 1129 ft | 146 kts | 344° |
| 2026-04-15 17:15 | -27.56188 | -58.78787 | 794 ft | 137 kts | 347° |
| 2026-04-15 17:16 | -27.55277 | -58.78848 | 591 ft | 123 kts | 8° |
| 2026-04-15 17:16 | -27.54498 | -58.78576 | 769 ft | 115 kts | 13° |
| 2026-04-15 17:16 | -27.53744 | -58.78296 | 932 ft | 114 kts | 15° |
| 2026-04-15 17:16 | -27.52941 | -58.78012 | 960 ft | 123 kts | 8° |
| 2026-04-15 17:17 | -27.52102 | -58.77747 | 1045 ft | 129 kts | 13° |
| 2026-04-15 17:17 | -27.51239 | -58.77430 | 1181 ft | 130 kts | 15° |
| 2026-04-15 17:17 | -27.50392 | -58.77088 | 1165 ft | 125 kts | 13° |
| 2026-04-15 17:17 | -27.49573 | -58.76856 | 1026 ft | 120 kts | 6° |
| 2026-04-15 17:18 | -27.48767 | -58.76774 | 894 ft | 114 kts | 358° |
| 2026-04-15 17:18 | -27.47945 | -58.76775 | 664 ft | 123 kts | 360° |
| 2026-04-15 17:18 | -27.47081 | -58.76646 | 541 ft | 127 kts | 9° |
| 2026-04-15 17:18 | -27.46220 | -58.76439 | 371 ft | 125 kts | 7° |
| 2026-04-15 17:19 | -27.45375 | -58.76313 | 219 ft | 114 kts | 5° |
| 2026-04-15 17:19 | -27.44665 | -58.76206 | 207 ft | 84 kts | 8° |
| 2026-04-15 17:19 | -27.44287 | -58.76146 | 207 ft | 19 kts | 7° |
| 2026-04-15 17:19 | -27.44212 | -58.76095 | 207 ft | 13 kts | 89° |
| 2026-04-15 17:20 | -27.44218 | -58.76031 | 207 ft | 3 kts | 97° |
| 2026-04-15 17:20 | -27.44221 | -58.76003 | 207 ft | 3 kts | 96° |
| 2026-04-15 17:20 | -27.44225 | -58.75964 | 207 ft | 7 kts | 96° |
| 2026-04-15 17:20 | -27.44231 | -58.75908 | 207 ft | 7 kts | 97° |
| 2026-04-15 17:21 | -27.44237 | -58.75856 | 207 ft | 6 kts | 97° |
| 2026-04-15 17:21 | -27.44247 | -58.75813 | 207 ft | 4 kts | 135° |
| 2026-04-15 17:21 | -27.44278 | -58.75802 | 207 ft | 4 kts | 184° |
| 2026-04-15 17:21 | -27.44311 | -58.75807 | 207 ft | 4 kts | 188° |
| 2026-04-15 17:22 | -27.44346 | -58.75811 | 207 ft | 5 kts | 187° |
| 2026-04-15 17:22 | -27.44381 | -58.75817 | 207 ft | 5 kts | 188° |
| 2026-04-15 17:22 | -27.44416 | -58.75823 | 207 ft | 5 kts | 188° |
| 2026-04-15 17:22 | -27.44452 | -58.75829 | 207 ft | 5 kts | 187° |
| 2026-04-15 17:23 | -27.44489 | -58.75834 | 207 ft | 5 kts | 187° |
| 2026-04-15 17:23 | -27.44526 | -58.75839 | 207 ft | 5 kts | 187° |
| 2026-04-15 17:23 | -27.44563 | -58.75845 | 207 ft | 5 kts | 188° |
| 2026-04-15 17:23 | -27.44602 | -58.75851 | 207 ft | 5 kts | 188° |
| 2026-04-15 17:24 | -27.44640 | -58.75858 | 207 ft | 5 kts | 188° |
| 2026-04-15 17:24 | -27.44678 | -58.75863 | 207 ft | 5 kts | 188° |
| 2026-04-15 17:24 | -27.44717 | -58.75869 | 207 ft | 5 kts | 188° |
| 2026-04-15 17:24 | -27.44757 | -58.75875 | 207 ft | 5 kts | 188° |
| 2026-04-15 17:25 | -27.44788 | -58.75875 | 207 ft | 3 kts | 162° |
| 2026-04-15 17:25 | -27.44806 | -58.75861 | 207 ft | 3 kts | 128° |
| 2026-04-15 17:25 | -27.44816 | -58.75835 | 207 ft | 4 kts | 108° |
| 2026-04-15 17:25 | -27.44820 | -58.75808 | 207 ft | 2 kts | 89° |
| 2026-04-15 17:26 | -27.44822 | -58.75790 | 207 ft | 1 kts | 103° |
| 2026-04-15 17:26 | -27.44823 | -58.75785 | 207 ft | 0 kts | 107° |